Time;durP1;ratioP1;P1;durP2;ratioP2;P2;SDS_P1;SDS_P2;PMS_P1;PMS_P2;Temp;Humidity;BMP_temperature;BMP_pressure;BME280_temperature;BME280_humidity;BME280_pressure;Samples;Min_cycle;Max_cycle;Signal;HPM_P1;HPM_P2
2023/10/17 00:00:42;;;;;;;5.73;3.20;;;4.70;99.90;;;;;;5001533;28;20274;-54
2023/10/17 00:03:11;;;;;;;5.63;3.50;;;4.70;99.90;;;;;;4993334;28;20232;-56
2023/10/17 00:05:37;;;;;;;3.57;3.00;;;4.60;99.90;;;;;;5001240;28;20291;-54
2023/10/17 00:08:09;;;;;;;3.40;2.80;;;4.60;99.90;;;;;;5004160;28;20621;-56
2023/10/17 00:10:37;;;;;;;3.90;3.20;;;4.60;99.90;;;;;;5004189;28;20295;-55
2023/10/17 00:13:20;;;;;;;3.73;2.90;;;4.50;99.90;;;;;;5001201;28;20225;-55
2023/10/17 00:15:48;;;;;;;4.30;3.20;;;4.50;99.90;;;;;;5001385;28;20298;-55
2023/10/17 00:18:18;;;;;;;3.03;2.73;;;4.50;99.90;;;;;;5004350;28;20685;-56
2023/10/17 00:20:45;;;;;;;5.03;3.20;;;4.50;99.90;;;;;;5003920;28;20226;-55
2023/10/17 00:23:15;;;;;;;4.20;3.27;;;4.50;99.90;;;;;;5000634;28;20223;-55
2023/10/17 00:25:45;;;;;;;6.13;4.23;;;4.40;99.90;;;;;;5000713;28;20208;-54
2023/10/17 00:28:13;;;;;;;4.80;3.30;;;4.40;99.90;;;;;;4993732;28;20204;-55
2023/10/17 00:30:41;;;;;;;4.27;2.90;;;4.40;99.90;;;;;;5000633;28;20204;-54
2023/10/17 00:33:10;;;;;;;4.17;2.97;;;4.30;99.90;;;;;;4992814;28;20227;-54
2023/10/17 00:35:38;;;;;;;4.00;3.07;;;4.20;99.90;;;;;;5000493;28;20648;-55
2023/10/17 00:38:07;;;;;;;5.13;3.63;;;4.20;99.90;;;;;;5003576;28;20226;-55
2023/10/17 00:40:44;;;;;;;4.63;3.20;;;4.10;99.90;;;;;;5003626;28;20209;-54
2023/10/17 00:43:12;;;;;;;3.47;2.90;;;4.00;99.90;;;;;;4993294;28;20223;-53
2023/10/17 00:45:39;;;;;;;4.30;3.10;;;3.90;99.90;;;;;;5000540;28;20293;-54
2023/10/17 00:48:17;;;;;;;4.17;3.30;;;3.80;99.90;;;;;;5008687;28;20630;-54
2023/10/17 00:50:46;;;;;;;3.80;3.20;;;3.80;99.90;;;;;;5000408;28;20665;-55
2023/10/17 00:53:13;;;;;;;5.97;3.40;;;3.80;99.90;;;;;;5003386;28;20642;-54
2023/10/17 00:55:49;;;;;;;7.50;3.20;;;3.80;99.90;;;;;;5003517;28;20544;-55
2023/10/17 00:58:18;;;;;;;4.83;3.23;;;3.70;99.90;;;;;;4993456;28;20199;-55
2023/10/17 01:00:48;;;;;;;3.50;3.00;;;3.80;99.90;;;;;;5000175;28;20239;-54
2023/10/17 01:03:16;;;;;;;4.93;2.93;;;3.70;99.90;;;;;;5003602;28;20238;-54
2023/10/17 01:05:57;;;;;;;4.23;3.43;;;3.70;99.90;;;;;;5003319;28;20207;-54
2023/10/17 01:08:36;;;;;;;3.57;3.00;;;3.70;99.90;;;;;;4994274;28;20290;-55
2023/10/17 01:11:08;;;;;;;5.67;3.30;;;3.70;99.90;;;;;;5002497;28;20204;-55
2023/10/17 01:13:37;;;;;;;5.30;3.43;;;3.70;99.90;;;;;;5003429;28;20226;-54
2023/10/17 01:16:06;;;;;;;4.87;3.13;;;3.80;99.90;;;;;;5000377;28;20214;-54
2023/10/17 01:18:35;;;;;;;3.37;2.90;;;3.80;99.90;;;;;;5000224;28;20294;-54
2023/10/17 01:21:02;;;;;;;4.53;3.47;;;3.80;99.90;;;;;;5001559;28;20259;-54
2023/10/17 01:23:29;;;;;;;4.10;3.20;;;3.90;99.90;;;;;;5003191;28;20227;-56
2023/10/17 01:25:58;;;;;;;3.13;2.80;;;4.00;99.90;;;;;;5001507;28;20239;-55
2023/10/17 01:28:24;;;;;;;6.17;3.23;;;4.10;99.90;;;;;;4999630;28;20203;-56
2023/10/17 01:30:55;;;;;;;3.97;3.10;;;4.10;99.90;;;;;;5000690;28;20220;-54
2023/10/17 01:33:24;;;;;;;4.40;3.17;;;4.10;99.90;;;;;;5003137;28;20490;-55
2023/10/17 01:35:52;;;;;;;3.80;3.40;;;4.10;99.90;;;;;;5002215;28;20233;-55
2023/10/17 01:38:20;;;;;;;6.10;3.33;;;4.10;99.90;;;;;;4999759;28;20265;-54
2023/10/17 01:40:46;;;;;;;3.43;3.10;;;4.10;99.90;;;;;;4999821;28;20211;-57
2023/10/17 01:43:14;;;;;;;4.67;3.43;;;4.10;99.90;;;;;;5003242;28;20321;-55
2023/10/17 01:45:42;;;;;;;3.50;3.20;;;4.10;99.90;;;;;;5004242;28;20212;-54
2023/10/17 01:48:11;;;;;;;4.30;2.97;;;4.00;99.90;;;;;;5003178;28;20210;-55
2023/10/17 01:50:39;;;;;;;3.27;2.90;;;4.00;99.90;;;;;;5002997;28;20288;-53
2023/10/17 01:53:12;;;;;;;4.47;2.90;;;3.90;99.90;;;;;;5000256;28;20553;-54
2023/10/17 01:55:39;;;;;;;3.93;2.87;;;3.90;99.90;;;;;;5000116;28;20244;-54
2023/10/17 01:58:07;;;;;;;4.13;2.83;;;3.80;99.90;;;;;;5003119;28;20230;-54
2023/10/17 02:00:38;;;;;;;3.27;2.70;;;3.70;99.90;;;;;;5003044;28;20214;-53
2023/10/17 02:03:06;;;;;;;4.20;2.70;;;3.60;99.90;;;;;;4999959;28;20314;-55
2023/10/17 02:05:34;;;;;;;4.27;2.87;;;3.60;99.90;;;;;;4999637;28;20208;-56
2023/10/17 02:08:01;;;;;;;5.50;2.90;;;3.60;99.90;;;;;;5001338;28;20208;-54
2023/10/17 02:10:29;;;;;;;6.63;3.40;;;3.60;99.90;;;;;;5002999;28;20205;-54
2023/10/17 02:12:56;;;;;;;4.07;2.80;;;3.50;99.90;;;;;;5001449;28;20270;-55
2023/10/17 02:15:24;;;;;;;3.40;3.07;;;3.40;99.90;;;;;;4999448;28;20230;-54
2023/10/17 02:17:53;;;;;;;5.07;3.20;;;3.40;99.90;;;;;;4999892;28;20243;-55
2023/10/17 02:20:29;;;;;;;4.30;2.90;;;3.50;99.90;;;;;;5002660;28;20210;-54
2023/10/17 02:22:58;;;;;;;4.13;3.27;;;3.40;99.90;;;;;;5001052;28;20296;-55
2023/10/17 02:25:32;;;;;;;3.17;2.87;;;3.40;99.90;;;;;;4999304;28;20670;-54
2023/10/17 02:27:59;;;;;;;3.60;3.10;;;3.30;99.90;;;;;;5001017;28;20207;-54
2023/10/17 02:30:26;;;;;;;3.50;3.20;;;3.20;99.90;;;;;;5002487;28;20242;-54
2023/10/17 02:32:54;;;;;;;5.03;3.30;;;3.20;99.90;;;;;;5002675;28;20223;-55
2023/10/17 02:35:28;;;;;;;4.20;3.17;;;3.20;99.90;;;;;;5007992;28;20211;-55
2023/10/17 02:37:57;;;;;;;3.87;3.20;;;3.20;99.90;;;;;;5004955;28;20211;-54
2023/10/17 02:40:24;;;;;;;4.13;3.00;;;3.30;99.90;;;;;;5002658;28;20211;-54
2023/10/17 02:42:50;;;;;;;4.60;2.87;;;3.30;99.90;;;;;;5003062;28;20267;-55
2023/10/17 02:45:24;;;;;;;3.70;3.17;;;3.30;99.90;;;;;;5006056;28;20267;-55
2023/10/17 02:47:56;;;;;;;3.57;2.90;;;3.40;99.90;;;;;;5005327;28;20206;-54
2023/10/17 02:50:42;;;;;;;3.83;3.07;;;3.40;99.90;;;;;;5002434;28;20211;-53
2023/10/17 02:53:12;;;;;;;5.00;3.20;;;3.30;99.90;;;;;;5005158;28;20661;-54
2023/10/17 02:55:39;;;;;;;4.40;3.00;;;3.40;99.90;;;;;;5005860;28;20275;-54
2023/10/17 02:58:06;;;;;;;5.57;2.93;;;3.50;99.90;;;;;;5003566;28;20703;-54
2023/10/17 03:00:34;;;;;;;3.60;2.90;;;3.60;99.90;;;;;;5002435;28;20223;-53
2023/10/17 03:03:12;;;;;;;3.73;2.80;;;3.60;99.90;;;;;;5004719;28;20650;-55
2023/10/17 03:05:40;;;;;;;5.67;3.50;;;3.60;99.90;;;;;;4998942;28;20243;-54
2023/10/17 03:08:10;;;;;;;4.57;2.90;;;3.60;99.90;;;;;;5004757;28;20234;-55
2023/10/17 03:10:39;;;;;;;4.00;2.93;;;3.60;99.90;;;;;;5005214;28;20203;-55
2023/10/17 03:13:14;;;;;;;4.30;2.73;;;3.70;99.90;;;;;;5002922;28;20771;-54
2023/10/17 03:15:46;;;;;;;4.03;2.93;;;3.70;99.90;;;;;;5002132;28;20265;-55
2023/10/17 03:18:15;;;;;;;3.17;2.67;;;3.80;99.90;;;;;;4994271;28;20214;-54
2023/10/17 03:20:44;;;;;;;3.57;2.43;;;3.80;99.90;;;;;;5002000;28;20448;-54
2023/10/17 03:23:10;;;;;;;3.97;2.87;;;3.80;99.90;;;;;;5009098;22;20267;-57
2023/10/17 03:25:38;;;;;;;4.13;3.00;;;3.70;99.90;;;;;;4965566;28;20216;-56
2023/10/17 03:28:08;;;;;;;3.67;2.73;;;3.70;99.90;;;;;;4967581;28;20227;-56
2023/10/17 03:30:35;;;;;;;6.47;3.03;;;3.70;99.90;;;;;;4967594;28;20215;-57
2023/10/17 03:33:08;;;;;;;3.63;2.77;;;3.60;99.90;;;;;;4965138;28;20235;-57
2023/10/17 03:35:37;;;;;;;3.77;3.00;;;3.60;99.90;;;;;;4963307;28;20213;-57
2023/10/17 03:38:08;;;;;;;4.33;3.23;;;3.70;99.90;;;;;;4965374;28;20411;-58
2023/10/17 03:40:40;;;;;;;3.73;2.77;;;3.70;99.90;;;;;;4966703;28;20283;-56
2023/10/17 03:43:12;;;;;;;3.40;2.80;;;3.80;99.90;;;;;;4963804;28;20236;-56
2023/10/17 03:45:47;;;;;;;3.43;2.90;;;3.80;99.90;;;;;;4962042;28;20209;-57
2023/10/17 03:48:20;;;;;;;4.47;3.10;;;3.90;99.90;;;;;;4962842;28;20705;-57
2023/10/17 03:50:59;;;;;;;3.63;3.20;;;4.00;99.90;;;;;;4962962;28;20216;-56
2023/10/17 03:53:28;;;;;;;4.93;3.40;;;4.20;99.90;;;;;;4963226;28;20267;-58
2023/10/17 03:55:55;;;;;;;5.53;3.70;;;4.30;99.90;;;;;;4963841;28;20217;-59
2023/10/17 03:58:29;;;;;;;4.63;3.60;;;4.40;99.90;;;;;;4966025;28;20624;-57
2023/10/17 04:00:58;;;;;;;6.53;4.13;;;4.50;99.90;;;;;;4964998;28;20208;-57
2023/10/17 04:03:30;;;;;;;4.30;3.37;;;4.50;99.90;;;;;;4962581;28;20284;-57
2023/10/17 04:06:17;;;;;;;6.20;3.70;;;4.60;99.90;;;;;;4963527;28;20227;-56
2023/10/17 04:08:49;;;;;;;4.87;3.60;;;4.70;99.90;;;;;;4965665;28;20297;-57
2023/10/17 04:11:23;;;;;;;4.40;4.00;;;4.80;99.90;;;;;;4962672;28;20306;-57
2023/10/17 04:13:54;;;;;;;6.43;4.87;;;4.90;99.90;;;;;;4962578;28;20233;-58
2023/10/17 04:16:27;;;;;;;3.90;3.30;;;4.90;99.90;;;;;;4965596;28;20216;-57
2023/10/17 04:18:57;;;;;;;5.10;3.83;;;5.00;99.90;;;;;;4964907;28;20251;-57
2023/10/17 04:21:31;;;;;;;6.47;4.07;;;5.00;99.90;;;;;;4962318;28;20208;-57
2023/10/17 04:24:01;;;;;;;6.80;4.37;;;5.00;99.90;;;;;;4963206;28;20255;-58
2023/10/17 04:26:28;;;;;;;6.37;3.40;;;5.10;99.90;;;;;;4965496;28;20208;-57
2023/10/17 04:28:56;;;;;;;5.87;3.27;;;5.10;99.90;;;;;;4965062;28;20212;-57
2023/10/17 04:31:26;;;;;;;6.60;4.83;;;5.20;99.90;;;;;;4962761;28;20205;-57
2023/10/17 04:34:05;;;;;;;9.27;6.33;;;5.20;99.90;;;;;;4962465;28;20236;-56
2023/10/17 04:36:37;;;;;;;5.83;4.03;;;5.30;99.90;;;;;;4965453;28;20215;-57
2023/10/17 04:39:11;;;;;;;5.33;3.50;;;5.40;99.90;;;;;;4963303;28;20208;-56
2023/10/17 04:41:48;;;;;;;12.00;7.60;;;5.50;99.90;;;;;;4961688;28;20221;-58
2023/10/17 04:44:16;;;;;;;5.50;3.77;;;5.60;99.90;;;;;;4961822;28;20674;-58
2023/10/17 04:46:50;;;;;;;6.17;3.67;;;5.50;99.90;;;;;;4961721;28;20205;-56
2023/10/17 04:49:18;;;;;;;5.20;4.37;;;5.80;99.90;;;;;;4961433;28;20200;-58
2023/10/17 04:51:51;;;;;;;4.47;3.37;;;5.80;99.90;;;;;;4961718;28;20217;-58
2023/10/17 04:54:29;;;;;;;4.03;3.13;;;5.90;99.90;;;;;;4961596;28;20205;-57
2023/10/17 04:57:00;;;;;;;4.20;2.57;;;5.90;99.90;;;;;;4962152;28;20302;-57
2023/10/17 04:59:43;;;;;;;3.50;2.60;;;5.90;99.90;;;;;;4964908;28;20200;-57
2023/10/17 05:08:04;;;;;;;4.87;3.63;;;5.60;99.90;;;;;;4964616;28;20299;-56
2023/10/17 06:18:59;;;;;;;5.53;3.70;;;6.10;99.90;;;;;;4964910;28;20215;-57
2023/10/17 06:21:36;;;;;;;5.53;3.20;;;6.00;99.90;;;;;;4967470;28;20205;-57
2023/10/17 06:24:06;;;;;;;4.20;3.13;;;6.00;99.90;;;;;;4965915;28;20266;-57
2023/10/17 06:26:58;;;;;;;7.50;4.63;;;6.00;99.90;;;;;;4963899;28;20224;-57
2023/10/17 06:32:48;;;;;;;5.03;3.77;;;6.50;99.90;;;;;;4966158;28;20239;-57
2023/10/17 06:35:13;;;;;;;7.23;6.13;;;6.70;99.90;;;;;;4965810;28;20216;-57
2023/10/17 06:37:42;;;;;;;7.90;3.43;;;7.00;99.90;;;;;;4963794;28;20200;-57
2023/10/17 06:40:15;;;;;;;4.60;3.50;;;7.20;99.90;;;;;;4965838;28;20247;-58
2023/10/17 06:42:48;;;;;;;5.87;4.10;;;7.30;99.90;;;;;;4967112;28;20732;-57
2023/10/17 06:45:19;;;;;;;5.03;3.97;;;7.30;99.90;;;;;;4964422;28;20216;-57
2023/10/17 06:47:47;;;;;;;5.80;4.10;;;7.40;99.90;;;;;;4963701;28;20325;-58
2023/10/17 06:53:03;;;;;;;7.70;4.20;;;7.60;99.90;;;;;;4965563;28;20251;-59
2023/10/17 06:55:38;;;;;;;5.13;3.63;;;7.80;99.90;;;;;;4963462;28;20232;-59
2023/10/17 06:58:09;;;;;;;4.63;3.23;;;7.90;99.90;;;;;;4965240;28;20212;-59
2023/10/17 07:00:49;;;;;;;5.50;3.53;;;8.00;99.90;;;;;;4966788;28;20223;-59
2023/10/17 07:03:16;;;;;;;3.90;3.30;;;8.00;99.90;;;;;;4963792;28;20232;-60
2023/10/17 07:05:49;;;;;;;4.17;3.77;;;8.10;99.90;;;;;;4963614;28;20280;-60
2023/10/17 07:08:19;;;;;;;5.07;3.80;;;8.10;99.90;;;;;;4966992;28;20267;-61
2023/10/17 07:10:59;;;;;;;7.00;4.73;;;8.20;99.90;;;;;;4967401;28;20234;-62
2023/10/17 07:13:54;;;;;;;6.60;4.07;;;8.30;99.90;;;;;;4964259;28;20661;-61
2023/10/17 07:16:27;;;;;;;6.10;3.90;;;8.40;99.90;;;;;;4961920;28;20240;-63
2023/10/17 07:18:53;;;;;;;7.07;3.77;;;8.50;99.90;;;;;;4962786;28;20213;-59
2023/10/17 07:21:24;;;;;;;5.20;4.70;;;8.50;99.90;;;;;;4966803;28;20229;-60
2023/10/17 07:23:54;;;;;;;8.57;5.00;;;8.60;99.90;;;;;;4967213;28;20228;-62
2023/10/17 07:29:05;;;;;;;7.30;5.33;;;8.50;99.90;;;;;;4961975;28;20204;-61
2023/10/17 07:31:33;;;;;;;8.87;5.10;;;8.40;99.90;;;;;;4966210;28;20632;-61
2023/10/17 07:34:16;;;;;;;8.33;4.83;;;8.40;99.90;;;;;;4965487;28;20681;-60
2023/10/17 07:36:43;;;;;;;7.00;4.70;;;8.50;99.90;;;;;;4963212;28;20213;-59
2023/10/17 07:39:22;;;;;;;5.00;4.10;;;8.70;99.90;;;;;;4964564;28;20689;-60
2023/10/17 07:41:53;;;;;;;7.43;4.30;;;8.90;99.90;;;;;;4965916;28;20623;-60
2023/10/17 07:44:21;;;;;;;5.97;4.03;;;9.10;99.90;;;;;;4962739;28;20703;-59
2023/10/17 07:46:59;;;;;;;6.03;4.30;;;9.30;99.90;;;;;;4962592;28;20209;-59
2023/10/17 07:49:26;;;;;;;6.10;4.27;;;9.50;99.90;;;;;;4962584;28;20648;-59
2023/10/17 07:51:53;;;;;;;7.90;4.67;;;9.60;99.90;;;;;;4962393;28;20232;-60
2023/10/17 07:54:28;;;;;;;6.97;5.10;;;9.70;99.90;;;;;;4965981;28;20682;-59
2023/10/17 07:56:55;;;;;;;6.87;4.93;;;9.80;99.90;;;;;;4965976;28;20208;-59
2023/10/17 07:59:30;;;;;;;7.13;5.07;;;9.80;99.90;;;;;;4962226;28;20205;-60
2023/10/17 08:02:00;;;;;;;8.17;4.93;;;9.70;99.90;;;;;;4962241;28;20315;-58
2023/10/17 08:04:30;;;;;;;8.10;5.13;;;9.90;99.90;;;;;;4965802;28;20238;-58
2023/10/17 08:06:57;;;;;;;7.30;5.00;;;10.00;99.90;;;;;;4965234;28;20218;-59
2023/10/17 08:09:36;;;;;;;7.77;5.37;;;10.10;99.90;;;;;;4961987;28;20635;-59
2023/10/17 08:12:05;;;;;;;10.53;5.60;;;10.20;99.90;;;;;;4963034;28;20323;-59
2023/10/17 08:14:34;;;;;;;6.87;5.43;;;10.30;99.90;;;;;;4965446;28;20880;-59
2023/10/17 08:17:02;;;;;;;9.03;6.10;;;10.40;99.90;;;;;;4964691;28;20677;-59
2023/10/17 08:19:35;;;;;;;6.90;5.40;;;10.40;99.90;;;;;;4962146;28;20629;-59
2023/10/17 08:22:10;;;;;;;7.07;5.17;;;10.60;99.90;;;;;;4962802;28;20232;-59
2023/10/17 08:24:44;;;;;;;8.80;5.80;;;10.50;99.90;;;;;;4965270;28;20301;-59
2023/10/17 08:27:14;;;;;;;8.10;6.13;;;10.60;99.90;;;;;;4963060;28;20207;-58
2023/10/17 08:29:43;;;;;;;9.20;5.80;;;10.60;99.90;;;;;;4962045;28;20212;-58
2023/10/17 08:34:59;;;;;;;7.83;6.30;;;10.80;99.90;;;;;;4964894;28;20683;-59
2023/10/17 08:37:28;;;;;;;9.10;6.50;;;10.90;99.90;;;;;;4961604;28;20205;-59
2023/10/17 08:39:57;;;;;;;9.60;6.40;;;11.10;99.90;;;;;;4961186;28;20211;-58
2023/10/17 08:42:31;;;;;;;9.23;6.23;;;11.20;99.90;;;;;;4961572;28;20614;-58
2023/10/17 08:44:58;;;;;;;8.97;6.57;;;11.20;99.90;;;;;;4961643;28;20553;-58
2023/10/17 08:47:30;;;;;;;7.77;6.50;;;11.20;99.90;;;;;;4964976;28;20226;-58
2023/10/17 08:50:00;;;;;;;8.53;6.37;;;11.20;99.90;;;;;;4964739;28;20262;-58
2023/10/17 08:52:28;;;;;;;8.17;6.70;;;11.20;99.90;;;;;;4961371;28;20228;-58
2023/10/17 08:54:55;;;;;;;9.00;6.73;;;11.20;99.90;;;;;;4961885;28;20240;-58
2023/10/17 08:57:22;;;;;;;9.07;7.10;;;11.30;99.90;;;;;;4965696;28;20208;-58
2023/10/17 09:00:22;;;;;;;8.43;6.60;;;11.40;99.90;;;;;;4964908;28;20205;-58
2023/10/17 09:03:00;;;;;;;12.47;7.60;;;11.50;99.90;;;;;;4961484;28;20233;-59
2023/10/17 09:05:27;;;;;;;9.40;7.37;;;11.60;99.90;;;;;;4961763;28;20289;-59
2023/10/17 09:07:56;;;;;;;9.73;7.70;;;11.70;99.90;;;;;;4961577;28;20271;-59
2023/10/17 09:10:28;;;;;;;22.53;9.47;;;11.70;99.90;;;;;;4961493;28;20625;-59
2023/10/17 09:13:52;;;;;;;23.87;9.23;;;11.90;99.90;;;;;;4961285;28;20227;-59
2023/10/17 09:16:10;;;;;;;11.93;7.47;;;12.10;99.90;;;;;;4961477;28;20209;-59
2023/10/17 09:18:42;;;;;;;14.33;7.67;;;12.00;99.90;;;;;;4964562;28;20234;-59
2023/10/17 09:21:10;;;;;;;7.70;6.70;;;12.00;99.90;;;;;;4963261;28;20294;-59
2023/10/17 09:23:41;;;;;;;8.63;6.80;;;12.10;99.90;;;;;;5027521;23;20242;-59
2023/10/17 09:26:10;;;;;;;11.23;7.57;;;12.10;99.90;;;;;;5020971;28;20257;-59
2023/10/17 09:28:37;;;;;;;9.40;7.57;;;12.10;99.90;;;;;;5022676;28;20272;-60
2023/10/17 09:31:07;;;;;;;10.23;7.23;;;12.20;99.90;;;;;;5011346;28;20226;-64
2023/10/17 09:33:36;;;;;;;9.37;7.27;;;12.40;99.90;;;;;;5022649;28;20665;-63
2023/10/17 09:36:05;;;;;;;7.50;6.23;;;12.40;99.90;;;;;;5021830;28;20706;-61
2023/10/17 09:38:33;;;;;;;9.13;6.93;;;12.60;99.90;;;;;;5019332;28;20672;-61
2023/10/17 09:41:00;;;;;;;9.77;7.53;;;12.60;99.90;;;;;;5019425;28;20206;-59
2023/10/17 09:43:27;;;;;;;9.37;7.93;;;12.60;99.90;;;;;;5021324;28;20250;-61
2023/10/17 09:46:02;;;;;;;9.27;6.70;;;12.60;99.90;;;;;;5022392;28;20680;-61
2023/10/17 09:48:34;;;;;;;7.97;7.13;;;12.60;99.90;;;;;;5011140;28;20212;-61
2023/10/17 09:51:02;;;;;;;9.63;8.10;;;12.80;99.90;;;;;;5019268;28;20203;-62
2023/10/17 09:53:34;;;;;;;10.57;7.87;;;12.90;99.90;;;;;;5022628;28;20221;-62
2023/10/17 09:56:09;;;;;;;11.47;7.70;;;12.90;99.90;;;;;;5021780;28;20214;-61
2023/10/17 09:58:41;;;;;;;9.90;6.90;;;12.80;99.90;;;;;;5018724;28;20213;-62
2023/10/17 10:01:14;;;;;;;9.43;7.37;;;12.90;99.90;;;;;;5019802;28;20214;-61
2023/10/17 10:03:41;;;;;;;10.63;7.30;;;13.10;99.90;;;;;;5022154;28;20335;-61
2023/10/17 10:06:21;;;;;;;8.63;6.87;;;13.50;99.90;;;;;;5021051;28;20206;-63
2023/10/17 10:08:50;;;;;;;9.87;7.53;;;13.70;99.90;;;;;;5018967;28;20726;-63
2023/10/17 10:11:16;;;;;;;8.23;7.43;;;13.80;99.90;;;;;;5020839;28;20214;-59
2023/10/17 10:14:02;;;;;;;13.63;7.80;;;14.00;99.90;;;;;;5022296;28;20229;-61
2023/10/17 10:16:49;;;;;;;8.60;7.27;;;14.20;99.90;;;;;;5011334;28;20207;-62
2023/10/17 10:19:16;;;;;;;8.13;7.30;;;14.20;99.90;;;;;;5021326;28;20207;-62
2023/10/17 10:21:57;;;;;;;11.33;7.77;;;14.10;99.90;;;;;;5021827;28;20638;-63
2023/10/17 10:24:28;;;;;;;12.43;8.63;;;14.30;99.90;;;;;;5018966;28;20637;-59
2023/10/17 10:27:24;;;;;;;10.50;7.83;;;14.50;99.90;;;;;;5018865;28;20215;-59
2023/10/17 10:29:56;;;;;;;9.57;7.33;;;14.80;99.90;;;;;;5014248;28;20216;-58
2023/10/17 10:32:34;;;;;;;9.37;7.07;;;14.70;99.90;;;;;;5022698;28;20233;-59
2023/10/17 10:35:03;;;;;;;8.63;7.00;;;14.60;99.90;;;;;;5022669;28;20690;-59
2023/10/17 10:37:32;;;;;;;9.43;7.50;;;14.60;99.90;;;;;;5019060;28;20627;-59
2023/10/17 10:40:10;;;;;;;9.70;7.20;;;14.50;99.90;;;;;;5018678;28;20211;-59
2023/10/17 10:42:48;;;;;;;7.53;6.47;;;14.40;99.90;;;;;;5012124;28;20286;-60
2023/10/17 10:45:31;;;;;;;11.43;7.20;;;14.50;99.90;;;;;;5020588;28;20292;-59
2023/10/17 10:47:59;;;;;;;8.70;6.40;;;14.50;99.90;;;;;;5021817;28;20213;-60
2023/10/17 10:50:27;;;;;;;9.13;6.60;;;14.40;99.90;;;;;;5018507;28;20204;-59
2023/10/17 10:52:56;;;;;;;8.50;6.57;;;14.40;99.90;;;;;;5018588;28;20223;-59
2023/10/17 10:55:25;;;;;;;14.33;7.07;;;14.30;99.90;;;;;;5024875;28;20257;-59
2023/10/17 10:57:52;;;;;;;8.17;7.07;;;14.30;99.90;;;;;;5025512;28;20214;-58
2023/10/17 11:00:19;;;;;;;12.10;7.10;;;14.50;99.90;;;;;;5022764;28;20202;-58
2023/10/17 11:02:46;;;;;;;8.33;6.87;;;14.60;99.90;;;;;;5021956;28;20222;-58
2023/10/17 11:05:15;;;;;;;8.77;7.17;;;14.80;99.90;;;;;;5023625;28;20356;-60
2023/10/17 11:07:42;;;;;;;7.53;6.70;;;15.00;99.90;;;;;;5025063;28;20206;-59
2023/10/17 11:10:11;;;;;;;7.70;6.25;;;15.20;99.90;;;;;;5024410;28;20210;-60
2023/10/17 11:12:39;;;;;;;7.57;6.40;;;15.30;99.90;;;;;;5021996;28;20732;-60
2023/10/17 11:15:14;;;;;;;6.55;5.88;;;15.40;99.90;;;;;;5022508;28;20242;-58
2023/10/17 11:17:42;;;;;;;8.27;6.35;;;15.50;99.90;;;;;;5025108;28;20210;-59
2023/10/17 11:20:17;;;;;;;10.30;6.63;;;15.60;99.90;;;;;;5024021;28;20214;-59
2023/10/17 11:22:44;;;;;;;9.05;6.43;;;15.70;99.90;;;;;;5021515;28;20231;-59
2023/10/17 11:25:15;;;;;;;10.10;6.70;;;15.90;99.90;;;;;;5022717;28;20250;-59
2023/10/17 11:27:53;;;;;;;7.15;6.38;;;16.00;99.90;;;;;;5025292;28;20222;-60
2023/10/17 11:30:32;;;;;;;7.77;6.40;;;16.10;99.90;;;;;;5022363;28;20667;-60
2023/10/17 11:33:02;;;;;;;9.30;6.50;;;16.20;99.90;;;;;;5021452;28;20227;-60
2023/10/17 11:35:30;;;;;;;7.88;6.72;;;16.20;99.90;;;;;;5013961;28;20262;-60
2023/10/17 11:37:58;;;;;;;10.82;6.65;;;16.20;99.90;;;;;;5021664;28;20277;-60
2023/10/17 11:40:42;;;;;;;9.00;6.90;;;16.30;99.90;;;;;;5024361;28;20202;-60
2023/10/17 11:43:18;;;;;;;8.00;5.70;;;16.30;99.90;;;;;;5023636;28;20608;-59
2023/10/17 11:45:45;;;;;;;7.40;6.47;;;16.30;99.90;;;;;;5021252;28;20315;-60
2023/10/17 11:48:28;;;;;;;11.48;6.90;;;16.30;99.90;;;;;;5022361;28;20256;-62
2023/10/17 11:51:12;;;;;;;8.63;7.10;;;16.10;99.90;;;;;;5024498;28;20237;-60
2023/10/17 11:54:08;;;;;;;9.68;6.78;;;16.10;99.90;;;;;;5014016;28;20258;-59
2023/10/17 11:56:36;;;;;;;7.15;6.40;;;16.10;99.90;;;;;;5013874;28;20242;-59
2023/10/17 11:59:03;;;;;;;8.88;6.70;;;16.10;99.90;;;;;;5020663;28;20207;-59
2023/10/17 12:01:33;;;;;;;9.38;7.30;;;16.20;99.90;;;;;;5013006;28;20252;-59
2023/10/17 12:04:05;;;;;;;10.27;6.78;;;16.30;99.90;;;;;;5020860;28;20672;-60
2023/10/17 12:06:32;;;;;;;9.05;6.50;;;16.30;99.90;;;;;;5012698;28;20561;-59
2023/10/17 12:08:59;;;;;;;10.15;6.85;;;16.40;99.90;;;;;;5020431;28;20669;-60
2023/10/17 12:11:28;;;;;;;8.38;6.57;;;16.50;99.90;;;;;;5023602;28;20198;-59
2023/10/17 12:13:55;;;;;;;7.03;5.93;;;16.50;99.90;;;;;;5024140;28;20318;-59
2023/10/17 12:16:24;;;;;;;6.90;6.10;;;16.50;99.90;;;;;;5021301;28;20218;-60
2023/10/17 12:18:52;;;;;;;9.27;6.72;;;16.50;99.90;;;;;;5020785;28;20273;-59
2023/10/17 12:21:19;;;;;;;7.38;6.30;;;16.40;99.90;;;;;;5022722;28;20234;-60
2023/10/17 12:23:46;;;;;;;8.40;6.15;;;16.30;99.90;;;;;;5023852;28;20245;-60
2023/10/17 12:26:14;;;;;;;7.40;5.97;;;16.30;99.90;;;;;;5022681;28;20213;-59
2023/10/17 12:28:42;;;;;;;10.75;6.63;;;16.30;99.90;;;;;;5020276;28;20269;-60
2023/10/17 12:31:10;;;;;;;8.80;6.70;;;16.30;99.90;;;;;;5020976;28;20672;-61
2023/10/17 12:33:37;;;;;;;7.00;5.82;;;16.20;99.90;;;;;;5023622;28;20230;-60
2023/10/17 12:36:04;;;;;;;8.10;6.32;;;16.20;99.90;;;;;;5023415;28;20205;-59
2023/10/17 12:38:34;;;;;;;8.65;6.40;;;16.40;99.90;;;;;;5012105;28;20298;-59
2023/10/17 12:41:02;;;;;;;7.30;5.93;;;16.60;99.90;;;;;;5020131;28;20203;-59
2023/10/17 12:43:29;;;;;;;9.25;6.38;;;16.80;99.90;;;;;;5023259;28;20358;-60
2023/10/17 12:45:57;;;;;;;9.85;5.93;;;16.80;99.90;;;;;;5023469;28;20230;-60
2023/10/17 12:48:23;;;;;;;8.52;5.88;;;16.60;99.90;;;;;;5020705;28;20214;-59
2023/10/17 12:50:51;;;;;;;8.60;6.10;;;16.30;99.90;;;;;;5020059;28;20211;-59
2023/10/17 12:53:18;;;;;;;9.80;6.53;;;16.20;99.90;;;;;;5021323;28;20333;-60
2023/10/17 12:55:45;;;;;;;9.60;7.18;;;16.10;99.90;;;;;;5023848;28;20203;-59
2023/10/17 12:58:12;;;;;;;10.10;7.03;;;16.10;99.90;;;;;;5022136;28;20686;-59
2023/10/17 13:00:40;;;;;;;10.20;6.38;;;16.00;99.90;;;;;;5019743;28;20211;-60
2023/10/17 13:03:08;;;;;;;7.45;6.65;;;16.10;99.90;;;;;;5019747;28;20254;-59
2023/10/17 13:05:34;;;;;;;9.30;6.47;;;16.10;99.90;;;;;;5023008;28;20249;-60
2023/10/17 13:08:02;;;;;;;10.05;6.22;;;16.00;99.90;;;;;;5022709;28;20210;-60
2023/10/17 13:10:30;;;;;;;10.00;6.18;;;16.10;99.90;;;;;;5019221;28;20238;-60
2023/10/17 13:12:58;;;;;;;7.80;6.60;;;16.20;99.90;;;;;;5020037;28;20255;-60
2023/10/17 13:15:25;;;;;;;8.15;6.32;;;16.00;99.90;;;;;;5022608;28;20233;-59
2023/10/17 13:17:55;;;;;;;7.50;5.85;;;16.00;99.90;;;;;;5022905;28;20206;-61
2023/10/17 13:20:28;;;;;;;9.20;6.80;;;15.90;99.90;;;;;;5020207;28;20238;-60
2023/10/17 13:22:56;;;;;;;7.93;6.00;;;15.80;99.90;;;;;;5019194;28;20256;-59
2023/10/17 13:25:23;;;;;;;7.63;5.75;;;15.80;99.90;;;;;;5021923;28;20658;-60
2023/10/17 13:27:50;;;;;;;9.00;6.03;;;15.90;99.90;;;;;;5022815;28;20214;-59
2023/10/17 13:30:17;;;;;;;8.80;6.32;;;15.80;99.90;;;;;;5020962;28;20630;-61
2023/10/17 13:32:44;;;;;;;8.45;6.20;;;15.80;99.90;;;;;;5019118;28;20254;-59
2023/10/17 13:35:11;;;;;;;7.05;5.47;;;15.70;99.90;;;;;;5019830;28;20207;-59
2023/10/17 13:37:51;;;;;;;8.23;5.17;;;15.70;99.90;;;;;;5022443;28;20221;-59
2023/10/17 13:40:18;;;;;;;9.68;5.93;;;15.70;99.90;;;;;;5020758;28;20210;-61
2023/10/17 13:42:44;;;;;;;10.70;6.03;;;15.80;99.90;;;;;;5018827;28;20716;-61
2023/10/17 13:45:13;;;;;;;5.97;5.22;;;15.90;99.90;;;;;;5019593;28;20723;-59
2023/10/17 13:47:40;;;;;;;10.02;5.30;;;15.90;99.90;;;;;;5022319;28;20214;-60
2023/10/17 13:50:09;;;;;;;35.75;8.45;;;15.90;99.90;;;;;;5022503;28;20233;-58
2023/10/17 13:52:35;;;;;;;11.45;5.82;;;15.90;99.90;;;;;;5018792;28;20313;-58
2023/10/17 13:55:08;;;;;;;23.20;7.53;;;16.00;99.90;;;;;;5019052;28;20203;-59
2023/10/17 13:57:34;;;;;;;17.52;6.28;;;15.90;99.90;;;;;;5011651;28;20255;-60
2023/10/17 14:00:02;;;;;;;7.95;5.43;;;16.00;99.90;;;;;;5019225;28;20218;-60
2023/10/17 14:02:28;;;;;;;10.55;5.18;;;16.00;99.90;;;;;;5021583;28;20257;-60
2023/10/17 14:04:55;;;;;;;8.57;5.13;;;16.00;99.90;;;;;;5022020;28;20631;-60
2023/10/17 14:07:22;;;;;;;9.43;5.15;;;16.00;99.90;;;;;;5020180;28;20791;-59
2023/10/17 14:09:50;;;;;;;7.72;5.35;;;16.00;99.90;;;;;;5018858;28;20216;-59
2023/10/17 14:12:18;;;;;;;8.85;4.78;;;16.00;99.90;;;;;;5020297;28;20796;-59
2023/10/17 14:14:45;;;;;;;5.55;4.53;;;15.90;99.90;;;;;;5022254;28;20221;-60
2023/10/17 14:17:11;;;;;;;8.52;5.18;;;15.80;99.90;;;;;;5021425;28;20210;-59
2023/10/17 14:19:40;;;;;;;5.72;4.68;;;15.60;99.90;;;;;;5018923;28;20286;-59
2023/10/17 14:22:20;;;;;;;5.32;4.53;;;15.50;99.90;;;;;;5018645;28;20269;-60
2023/10/17 14:25:03;;;;;;;6.20;4.78;;;15.50;99.90;;;;;;5012806;28;20222;-60
2023/10/17 14:27:31;;;;;;;6.38;4.68;;;15.50;99.90;;;;;;5021648;28;20206;-60
2023/10/17 14:30:00;;;;;;;7.85;4.95;;;15.50;99.90;;;;;;5024826;28;20206;-61
2023/10/17 14:32:28;;;;;;;6.57;4.55;;;15.40;99.90;;;;;;5023229;28;20589;-59
2023/10/17 14:34:57;;;;;;;6.68;4.72;;;15.30;99.90;;;;;;5022481;28;20206;-60